sensor_id;sensor_type;location;lat;lon;timestamp;pressure;altitude;pressure_sealevel;temperature;humidity
53916;BME280;39827;49.652;18.770;2024-03-23T00:54:34;73586.59;;;-149.71;54.48
53916;BME280;39827;49.652;18.770;2024-03-23T00:56:59;73586.59;;;-149.71;54.11
53916;BME280;39827;49.652;18.770;2024-03-23T00:59:25;73580.56;;;-149.71;54.27
53916;BME280;39827;49.652;18.770;2024-03-23T01:01:54;73580.56;;;-149.71;54.37
53916;BME280;39827;49.652;18.770;2024-03-23T01:04:19;73584.59;;;-149.71;54.06
53916;BME280;39827;49.652;18.770;2024-03-23T01:06:45;73576.56;;;-149.71;54.06
53916;BME280;39827;49.652;18.770;2024-03-23T01:09:10;73564.50;;;-149.71;54.08
53916;BME280;39827;49.652;18.770;2024-03-23T01:11:36;73562.50;;;-149.71;54.34
53916;BME280;39827;49.652;18.770;2024-03-23T01:14:02;73548.44;;;-149.71;54.12
53916;BME280;39827;49.652;18.770;2024-03-23T01:16:27;73562.50;;;-149.71;54.28
53916;BME280;39827;49.652;18.770;2024-03-23T01:18:53;73560.47;;;-149.71;54.43
53916;BME280;39827;49.652;18.770;2024-03-23T01:21:18;73564.50;;;-149.71;54.72
53916;BME280;39827;49.652;18.770;2024-03-23T01:23:43;73580.56;;;-149.71;54.89
53916;BME280;39827;49.652;18.770;2024-03-23T01:26:09;73562.50;;;-149.71;54.60
53916;BME280;39827;49.652;18.770;2024-03-23T01:28:34;73566.50;;;-149.71;54.91
53916;BME280;39827;49.652;18.770;2024-03-23T01:31:00;73562.50;;;-149.71;54.80
53916;BME280;39827;49.652;18.770;2024-03-23T01:33:25;73590.63;;;-149.71;55.42
53916;BME280;39827;49.652;18.770;2024-03-23T01:35:50;73570.53;;;-149.71;55.08
53916;BME280;39827;49.652;18.770;2024-03-23T01:38:16;73572.53;;;-149.71;55.29
53916;BME280;39827;49.652;18.770;2024-03-23T01:40:41;73570.53;;;-149.71;55.29
53916;BME280;39827;49.652;18.770;2024-03-23T01:43:07;73564.50;;;-149.71;55.07
53916;BME280;39827;49.652;18.770;2024-03-23T01:45:33;73566.50;;;-149.71;55.52
53916;BME280;39827;49.652;18.770;2024-03-23T01:47:59;73580.56;;;-149.71;55.35
53916;BME280;39827;49.652;18.770;2024-03-23T01:50:26;73564.50;;;-149.71;55.15
53916;BME280;39827;49.652;18.770;2024-03-23T01:52:52;73572.53;;;-149.71;55.39
53916;BME280;39827;49.652;18.770;2024-03-23T01:55:17;73566.50;;;-149.71;55.42
53916;BME280;39827;49.652;18.770;2024-03-23T01:57:43;73570.53;;;-149.71;55.48
53916;BME280;39827;49.652;18.770;2024-03-23T02:00:09;73564.50;;;-149.71;55.59
53916;BME280;39827;49.652;18.770;2024-03-23T02:02:43;73560.47;;;-149.71;55.44
53916;BME280;39827;49.652;18.770;2024-03-23T02:05:10;73560.47;;;-149.71;55.35
53916;BME280;39827;49.652;18.770;2024-03-23T02:07:37;73562.50;;;-149.71;55.39
53916;BME280;39827;49.652;18.770;2024-03-23T02:10:03;73562.50;;;-149.71;55.58
53916;BME280;39827;49.652;18.770;2024-03-23T02:12:28;73552.44;;;-149.71;55.32
53916;BME280;39827;49.652;18.770;2024-03-23T02:14:54;73552.44;;;-149.71;55.12
53916;BME280;39827;49.652;18.770;2024-03-23T02:17:19;73556.47;;;-149.71;55.43
53916;BME280;39827;49.652;18.770;2024-03-23T02:19:44;73548.44;;;-149.71;55.28
53916;BME280;39827;49.652;18.770;2024-03-23T02:22:11;73544.41;;;-149.71;55.71
53916;BME280;39827;49.652;18.770;2024-03-23T02:24:37;73552.44;;;-149.71;55.19
53916;BME280;39827;49.652;18.770;2024-03-23T02:27:02;73546.41;;;-149.71;55.32
53916;BME280;39827;49.652;18.770;2024-03-23T02:29:28;73532.34;;;-149.71;55.46
53916;BME280;39827;49.652;18.770;2024-03-23T02:31:53;73548.44;;;-149.71;55.24
53916;BME280;39827;49.652;18.770;2024-03-23T02:34:19;73548.44;;;-149.71;55.57
53916;BME280;39827;49.652;18.770;2024-03-23T02:36:44;73550.44;;;-149.71;55.53
53916;BME280;39827;49.652;18.770;2024-03-23T02:39:09;73524.31;;;-149.71;55.62
53916;BME280;39827;49.652;18.770;2024-03-23T02:41:35;73522.31;;;-149.71;55.83
53916;BME280;39827;49.652;18.770;2024-03-23T02:44:00;73520.31;;;-149.71;55.83
53916;BME280;39827;49.652;18.770;2024-03-23T02:46:25;73526.34;;;-149.71;55.81
53916;BME280;39827;49.652;18.770;2024-03-23T02:48:51;73520.31;;;-149.71;55.80
53916;BME280;39827;49.652;18.770;2024-03-23T02:51:16;73520.31;;;-149.71;56.06
53916;BME280;39827;49.652;18.770;2024-03-23T02:53:42;73516.28;;;-149.71;55.68
53916;BME280;39827;49.652;18.770;2024-03-23T02:56:07;73512.28;;;-149.71;55.85
53916;BME280;39827;49.652;18.770;2024-03-23T02:58:33;73506.25;;;-149.71;55.70
53916;BME280;39827;49.652;18.770;2024-03-23T03:00:58;73504.22;;;-149.71;55.78
53916;BME280;39827;49.652;18.770;2024-03-23T03:03:24;73492.19;;;-149.71;56.01
53916;BME280;39827;49.652;18.770;2024-03-23T03:05:56;73500.22;;;-149.71;56.11
53916;BME280;39827;49.652;18.770;2024-03-23T03:08:21;73496.19;;;-149.71;55.99
53916;BME280;39827;49.652;18.770;2024-03-23T03:10:47;73488.16;;;-149.71;56.07
53916;BME280;39827;49.652;18.770;2024-03-23T03:13:12;73494.19;;;-149.71;56.11
53916;BME280;39827;49.652;18.770;2024-03-23T03:15:37;73486.16;;;-149.71;56.60
53916;BME280;39827;49.652;18.770;2024-03-23T03:18:04;73484.16;;;-149.71;56.09
53916;BME280;39827;49.652;18.770;2024-03-23T03:20:30;73472.09;;;-149.71;56.03
53916;BME280;39827;49.652;18.770;2024-03-23T03:22:56;73472.09;;;-149.71;56.04
53916;BME280;39827;49.652;18.770;2024-03-23T03:25:22;73468.06;;;-149.71;56.29
53916;BME280;39827;49.652;18.770;2024-03-23T03:27:47;73456.03;;;-149.71;56.08
53916;BME280;39827;49.652;18.770;2024-03-23T03:30:13;73460.03;;;-149.71;56.41
53916;BME280;39827;49.652;18.770;2024-03-23T03:32:38;73460.03;;;-149.71;56.89
53916;BME280;39827;49.652;18.770;2024-03-23T03:35:04;73456.03;;;-149.71;56.45
53916;BME280;39827;49.652;18.770;2024-03-23T03:37:30;73452.00;;;-149.71;56.26
53916;BME280;39827;49.652;18.770;2024-03-23T03:39:55;73454.00;;;-149.71;56.36
53916;BME280;39827;49.652;18.770;2024-03-23T03:42:20;73448.00;;;-149.71;56.31
53916;BME280;39827;49.652;18.770;2024-03-23T03:44:46;73439.97;;;-149.71;56.27
53916;BME280;39827;49.652;18.770;2024-03-23T03:47:11;73458.03;;;-149.71;56.79
53916;BME280;39827;49.652;18.770;2024-03-23T03:49:36;73448.00;;;-149.71;56.41
53916;BME280;39827;49.652;18.770;2024-03-23T03:52:02;73460.03;;;-149.71;56.19
53916;BME280;39827;49.652;18.770;2024-03-23T03:54:27;73448.00;;;-149.71;55.97
53916;BME280;39827;49.652;18.770;2024-03-23T03:56:53;73450.00;;;-149.71;55.89
53916;BME280;39827;49.652;18.770;2024-03-23T03:59:18;73450.00;;;-149.71;56.50
53916;BME280;39827;49.652;18.770;2024-03-23T04:01:45;73445.97;;;-149.71;56.56
53916;BME280;39827;49.652;18.770;2024-03-23T04:04:10;73439.97;;;-149.71;56.38
53916;BME280;39827;49.652;18.770;2024-03-23T04:06:36;73441.97;;;-149.71;56.10
53916;BME280;39827;49.652;18.770;2024-03-23T04:09:02;73421.88;;;-149.71;55.97
53916;BME280;39827;49.652;18.770;2024-03-23T04:11:27;73413.84;;;-149.71;55.91
53916;BME280;39827;49.652;18.770;2024-03-23T04:13:52;73427.91;;;-149.71;56.26
53916;BME280;39827;49.652;18.770;2024-03-23T04:16:28;73415.84;;;-149.71;56.58
53916;BME280;39827;49.652;18.770;2024-03-23T04:18:54;73427.91;;;-149.71;56.46
53916;BME280;39827;49.652;18.770;2024-03-23T04:21:19;73417.88;;;-149.71;56.68
53916;BME280;39827;49.652;18.770;2024-03-23T04:23:45;73423.88;;;-149.71;56.86
53916;BME280;39827;49.652;18.770;2024-03-23T04:26:11;73417.88;;;-149.71;56.35
53916;BME280;39827;49.652;18.770;2024-03-23T04:28:36;73409.81;;;-149.71;56.38
53916;BME280;39827;49.652;18.770;2024-03-23T04:31:04;73407.81;;;-149.71;56.49
53916;BME280;39827;49.652;18.770;2024-03-23T04:33:30;73417.88;;;-149.71;56.56
53916;BME280;39827;49.652;18.770;2024-03-23T04:35:56;73423.88;;;-149.71;56.57
53916;BME280;39827;49.652;18.770;2024-03-23T04:38:21;73427.91;;;-149.71;56.70
53916;BME280;39827;49.652;18.770;2024-03-23T04:40:57;73405.81;;;-149.71;56.22
53916;BME280;39827;49.652;18.770;2024-03-23T04:43:22;73409.81;;;-149.71;57.08
53916;BME280;39827;49.652;18.770;2024-03-23T04:45:48;73425.91;;;-149.71;57.20
53916;BME280;39827;49.652;18.770;2024-03-23T04:48:13;73423.88;;;-149.71;57.97
53916;BME280;39827;49.652;18.770;2024-03-23T04:50:39;73421.88;;;-149.71;58.80
53916;BME280;39827;49.652;18.770;2024-03-23T04:53:04;73421.88;;;-149.71;58.41
53916;BME280;39827;49.652;18.770;2024-03-23T04:55:30;73395.75;;;-149.71;58.64
53916;BME280;39827;49.652;18.770;2024-03-23T04:57:56;73391.75;;;-149.71;58.87
53916;BME280;39827;49.652;18.770;2024-03-23T05:00:21;73381.69;;;-149.71;59.01
53916;BME280;39827;49.652;18.770;2024-03-23T05:02:48;73357.59;;;-149.71;58.99
53916;BME280;39827;49.652;18.770;2024-03-23T05:05:13;73363.63;;;-149.71;58.93
53916;BME280;39827;49.652;18.770;2024-03-23T05:07:39;73359.59;;;-149.71;59.11
53916;BME280;39827;49.652;18.770;2024-03-23T05:10:05;73353.59;;;-149.71;59.62
53916;BME280;39827;49.652;18.770;2024-03-23T05:12:30;73355.59;;;-149.71;58.35
53916;BME280;39827;49.652;18.770;2024-03-23T05:14:57;73353.59;;;-149.71;58.89
53916;BME280;39827;49.652;18.770;2024-03-23T05:17:22;73355.59;;;-149.71;58.82
53916;BME280;39827;49.652;18.770;2024-03-23T05:19:47;73361.63;;;-149.71;58.93
53916;BME280;39827;49.652;18.770;2024-03-23T05:22:13;73367.63;;;-149.71;59.13
53916;BME280;39827;49.652;18.770;2024-03-23T05:24:38;73383.72;;;-149.71;58.10
53916;BME280;39827;49.652;18.770;2024-03-23T05:27:04;73361.63;;;-149.71;57.73
53916;BME280;39827;49.652;18.770;2024-03-23T05:29:29;73351.56;;;-149.71;57.34
53916;BME280;39827;49.652;18.770;2024-03-23T05:31:54;73355.59;;;-149.71;57.00
53916;BME280;39827;49.652;18.770;2024-03-23T05:34:22;73363.63;;;-149.71;58.01
53916;BME280;39827;49.652;18.770;2024-03-23T05:36:47;73367.63;;;-149.71;57.75
53916;BME280;39827;49.652;18.770;2024-03-23T05:39:14;73369.66;;;-149.71;57.34
53916;BME280;39827;49.652;18.770;2024-03-23T05:41:41;73367.63;;;-149.71;57.51
53916;BME280;39827;49.652;18.770;2024-03-23T05:44:07;73355.59;;;-149.71;57.60
53916;BME280;39827;49.652;18.770;2024-03-23T05:46:32;73349.56;;;-149.71;57.76
53916;BME280;39827;49.652;18.770;2024-03-23T05:49:01;73343.53;;;-149.71;57.91
53916;BME280;39827;49.652;18.770;2024-03-23T05:51:27;73359.59;;;-149.71;57.54
53916;BME280;39827;49.652;18.770;2024-03-23T05:53:52;73361.63;;;-149.71;57.84
53916;BME280;39827;49.652;18.770;2024-03-23T05:56:19;73357.59;;;-149.71;57.74
53916;BME280;39827;49.652;18.770;2024-03-23T05:58:45;73365.63;;;-149.71;57.61
53916;BME280;39827;49.652;18.770;2024-03-23T06:01:11;73363.63;;;-149.71;57.60
53916;BME280;39827;49.652;18.770;2024-03-23T06:03:38;73363.63;;;-149.71;57.63
53916;BME280;39827;49.652;18.770;2024-03-23T06:06:03;73363.63;;;-149.71;57.79
53916;BME280;39827;49.652;18.770;2024-03-23T06:08:29;73365.63;;;-149.71;57.51
53916;BME280;39827;49.652;18.770;2024-03-23T06:10:55;73369.66;;;-149.71;58.28
53916;BME280;39827;49.652;18.770;2024-03-23T06:13:20;73355.59;;;-149.71;57.43
53916;BME280;39827;49.652;18.770;2024-03-23T06:15:49;73351.56;;;-149.71;57.71
53916;BME280;39827;49.652;18.770;2024-03-23T06:18:15;73357.59;;;-149.71;57.98
53916;BME280;39827;49.652;18.770;2024-03-23T06:20:40;73365.63;;;-149.71;57.96
53916;BME280;39827;49.652;18.770;2024-03-23T06:23:06;73355.59;;;-149.71;58.09
53916;BME280;39827;49.652;18.770;2024-03-23T06:25:31;73347.56;;;-149.71;58.21
53916;BME280;39827;49.652;18.770;2024-03-23T06:27:56;73343.53;;;-149.71;58.02
53916;BME280;39827;49.652;18.770;2024-03-23T06:30:23;73341.53;;;-149.71;57.79
53916;BME280;39827;49.652;18.770;2024-03-23T06:32:48;73353.59;;;-149.71;58.35
53916;BME280;39827;49.652;18.770;2024-03-23T06:35:14;73331.50;;;-149.71;57.87
53916;BME280;39827;49.652;18.770;2024-03-23T06:37:39;73323.44;;;-149.71;57.68
53916;BME280;39827;49.652;18.770;2024-03-23T06:40:07;73321.44;;;-149.71;57.70
53916;BME280;39827;49.652;18.770;2024-03-23T06:42:36;73317.44;;;-149.71;57.42
53916;BME280;39827;49.652;18.770;2024-03-23T06:45:02;73319.44;;;-149.71;57.78
53916;BME280;39827;49.652;18.770;2024-03-23T06:47:30;73309.38;;;-149.71;57.38
53916;BME280;39827;49.652;18.770;2024-03-23T06:49:55;73311.41;;;-149.71;57.65
53916;BME280;39827;49.652;18.770;2024-03-23T06:52:20;73291.31;;;-149.71;57.06
53916;BME280;39827;49.652;18.770;2024-03-23T06:54:46;73285.28;;;-149.71;56.89
53916;BME280;39827;49.652;18.770;2024-03-23T06:57:11;73273.22;;;-149.71;57.18
53916;BME280;39827;49.652;18.770;2024-03-23T06:59:37;73271.22;;;-149.71;57.29
53916;BME280;39827;49.652;18.770;2024-03-23T07:02:04;73261.19;;;-149.71;56.24
53916;BME280;39827;49.652;18.770;2024-03-23T07:04:30;73263.19;;;-149.71;56.21
53916;BME280;39827;49.652;18.770;2024-03-23T07:06:55;73251.13;;;-149.71;56.22
53916;BME280;39827;49.652;18.770;2024-03-23T07:09:21;73249.13;;;-149.71;55.74
53916;BME280;39827;49.652;18.770;2024-03-23T07:11:50;73225.03;;;-149.71;54.96
53916;BME280;39827;49.652;18.770;2024-03-23T07:14:15;73200.94;;;-149.71;54.63
53916;BME280;39827;49.652;18.770;2024-03-23T07:16:41;73208.97;;;-149.71;54.43
53916;BME280;39827;49.652;18.770;2024-03-23T07:19:06;73200.94;;;-149.71;54.40
53916;BME280;39827;49.652;18.770;2024-03-23T07:21:31;73190.88;;;-149.71;54.35
53916;BME280;39827;49.652;18.770;2024-03-23T07:23:57;73186.88;;;-149.71;53.80
53916;BME280;39827;49.652;18.770;2024-03-23T07:26:22;73182.84;;;-149.71;53.73
53916;BME280;39827;49.652;18.770;2024-03-23T07:28:47;73200.94;;;-149.71;54.05
53916;BME280;39827;49.652;18.770;2024-03-23T07:31:14;73178.84;;;-149.71;54.27
53916;BME280;39827;49.652;18.770;2024-03-23T07:33:46;73178.84;;;-149.71;53.35
53916;BME280;39827;49.652;18.770;2024-03-23T07:36:12;73156.72;;;-149.71;53.23
53916;BME280;39827;49.652;18.770;2024-03-23T07:38:40;73168.78;;;-149.71;53.28
53916;BME280;39827;49.652;18.770;2024-03-23T07:41:08;73180.84;;;-149.71;53.35
53916;BME280;39827;49.652;18.770;2024-03-23T07:43:34;73170.78;;;-149.71;52.53
53916;BME280;39827;49.652;18.770;2024-03-23T07:46:00;73156.72;;;-149.71;52.83
53916;BME280;39827;49.652;18.770;2024-03-23T07:48:26;73154.72;;;-149.71;52.41
53916;BME280;39827;49.652;18.770;2024-03-23T07:53:23;73130.63;;;-149.71;52.19
53916;BME280;39827;49.652;18.770;2024-03-23T07:55:54;73112.53;;;-149.71;52.17
53916;BME280;39827;49.652;18.770;2024-03-23T07:58:20;73086.44;;;-149.71;51.54
53916;BME280;39827;49.652;18.770;2024-03-23T08:00:45;73094.47;;;-149.71;51.37
53916;BME280;39827;49.652;18.770;2024-03-23T08:03:11;73094.47;;;-149.71;51.46
53916;BME280;39827;49.652;18.770;2024-03-23T08:05:36;73104.50;;;-149.71;51.98
53916;BME280;39827;49.652;18.770;2024-03-23T08:08:01;73118.56;;;-149.71;52.10
53916;BME280;39827;49.652;18.770;2024-03-23T08:10:27;73118.56;;;-149.71;51.91
53916;BME280;39827;49.652;18.770;2024-03-23T08:12:52;73122.59;;;-149.71;51.98
53916;BME280;39827;49.652;18.770;2024-03-23T08:15:18;73134.63;;;-149.71;52.37
53916;BME280;39827;49.652;18.770;2024-03-23T08:17:43;73114.56;;;-149.71;52.43
53916;BME280;39827;49.652;18.770;2024-03-23T08:20:08;73116.56;;;-149.71;52.29
53916;BME280;39827;49.652;18.770;2024-03-23T08:22:34;73098.50;;;-149.71;51.86
53916;BME280;39827;49.652;18.770;2024-03-23T08:25:00;73104.50;;;-149.71;52.25
53916;BME280;39827;49.652;18.770;2024-03-23T08:27:25;73104.50;;;-149.71;52.12
53916;BME280;39827;49.652;18.770;2024-03-23T08:29:50;73070.38;;;-149.71;51.54
53916;BME280;39827;49.652;18.770;2024-03-23T08:32:16;73082.41;;;-149.71;51.77
53916;BME280;39827;49.652;18.770;2024-03-23T08:34:42;73036.22;;;-149.71;51.28
53916;BME280;39827;49.652;18.770;2024-03-23T08:37:07;73020.16;;;-149.71;50.16
53916;BME280;39827;49.652;18.770;2024-03-23T08:39:32;73028.19;;;-149.71;50.09
53916;BME280;39827;49.652;18.770;2024-03-23T08:41:58;72996.06;;;-149.71;49.77
53916;BME280;39827;49.652;18.770;2024-03-23T08:44:23;72992.03;;;-149.71;49.83
53916;BME280;39827;49.652;18.770;2024-03-23T08:46:48;73000.06;;;-149.71;48.69
53916;BME280;39827;49.652;18.770;2024-03-23T08:49:14;72990.03;;;-149.71;49.48
53916;BME280;39827;49.652;18.770;2024-03-23T08:51:39;72984.00;;;-149.71;49.08
53916;BME280;39827;49.652;18.770;2024-03-23T08:54:05;72965.94;;;-149.71;49.01
53916;BME280;39827;49.652;18.770;2024-03-23T08:56:30;72967.94;;;-149.71;49.20
53916;BME280;39827;49.652;18.770;2024-03-23T08:58:56;72945.84;;;-149.71;48.41
53916;BME280;39827;49.652;18.770;2024-03-23T09:01:21;72919.72;;;-149.71;47.92
53916;BME280;39827;49.652;18.770;2024-03-23T09:03:46;72915.72;;;-149.71;46.84
53916;BME280;39827;49.652;18.770;2024-03-23T09:06:14;72913.69;;;-149.71;47.19
53916;BME280;39827;49.652;18.770;2024-03-23T09:08:40;72851.44;;;-149.71;45.92
53916;BME280;39827;49.652;18.770;2024-03-23T09:11:15;72763.06;;;-149.71;44.72
53916;BME280;39827;49.652;18.770;2024-03-23T09:13:40;72753.03;;;-149.71;43.72
53916;BME280;39827;49.652;18.770;2024-03-23T09:16:07;72648.59;;;-149.71;41.98
53916;BME280;39827;49.652;18.770;2024-03-23T09:18:36;72608.44;;;-149.71;41.05
53916;BME280;39827;49.652;18.770;2024-03-23T09:21:10;72560.22;;;-149.71;40.21
53916;BME280;39827;49.652;18.770;2024-03-23T09:23:36;72536.13;;;-149.71;40.26
53916;BME280;39827;49.652;18.770;2024-03-23T09:26:04;72540.16;;;-149.71;40.05
53916;BME280;39827;49.652;18.770;2024-03-23T09:28:30;72526.09;;;-149.71;39.73
53916;BME280;39827;49.652;18.770;2024-03-23T09:31:10;72459.81;;;-149.71;39.33
53916;BME280;39827;49.652;18.770;2024-03-23T09:33:39;72465.84;;;-149.71;38.78
53916;BME280;39827;49.652;18.770;2024-03-23T09:36:05;72367.44;;;-149.71;37.54
53916;BME280;39827;49.652;18.770;2024-03-23T09:38:31;72315.22;;;-149.71;36.68
53916;BME280;39827;49.652;18.770;2024-03-23T09:40:57;72337.31;;;-149.71;37.13
53916;BME280;39827;49.652;18.770;2024-03-23T09:43:23;72269.03;;;-149.71;35.47
53916;BME280;39827;49.652;18.770;2024-03-23T09:45:49;72259.00;;;-149.71;35.04
53916;BME280;39827;49.652;18.770;2024-03-23T09:48:15;72226.88;;;-149.71;35.96
53916;BME280;39827;49.652;18.770;2024-03-23T09:50:41;72192.72;;;-149.71;35.29
53916;BME280;39827;49.652;18.770;2024-03-23T09:53:07;72180.69;;;-149.71;35.49
53916;BME280;39827;49.652;18.770;2024-03-23T09:55:33;72186.72;;;-149.71;35.50
53916;BME280;39827;49.652;18.770;2024-03-23T09:57:59;72200.75;;;-149.71;35.58
53916;BME280;39827;49.652;18.770;2024-03-23T10:00:25;72188.72;;;-149.71;34.78
53916;BME280;39827;49.652;18.770;2024-03-23T10:02:50;72156.59;;;-149.71;35.05
53916;BME280;39827;49.652;18.770;2024-03-23T10:05:22;72138.50;;;-149.71;35.07
53916;BME280;39827;49.652;18.770;2024-03-23T10:07:51;72140.53;;;-149.71;34.42
53916;BME280;39827;49.652;18.770;2024-03-23T10:10:17;72162.59;;;-149.71;35.42
53916;BME280;39827;49.652;18.770;2024-03-23T10:12:47;72100.34;;;-149.71;35.21
53916;BME280;39827;49.652;18.770;2024-03-23T10:15:24;72118.44;;;-149.71;35.39
53916;BME280;39827;49.652;18.770;2024-03-23T10:17:50;72138.50;;;-149.71;35.76
53916;BME280;39827;49.652;18.770;2024-03-23T10:20:20;72160.59;;;-149.71;35.68
53916;BME280;39827;49.652;18.770;2024-03-23T10:22:48;72144.53;;;-149.71;36.13
53916;BME280;39827;49.652;18.770;2024-03-23T10:25:13;72148.56;;;-149.71;36.19
53916;BME280;39827;49.652;18.770;2024-03-23T10:27:39;72176.66;;;-149.71;36.31
53916;BME280;39827;49.652;18.770;2024-03-23T10:30:12;72136.50;;;-149.71;36.24
53916;BME280;39827;49.652;18.770;2024-03-23T10:32:40;72168.63;;;-149.71;36.71
53916;BME280;39827;49.652;18.770;2024-03-23T10:35:19;72148.56;;;-149.71;36.30
53916;BME280;39827;49.652;18.770;2024-03-23T10:37:46;72164.63;;;-149.71;36.80
53916;BME280;39827;49.652;18.770;2024-03-23T10:40:12;72200.75;;;-149.71;37.26
53916;BME280;39827;49.652;18.770;2024-03-23T10:42:39;72174.66;;;-149.71;37.36
53916;BME280;39827;49.652;18.770;2024-03-23T10:45:05;72142.53;;;-149.71;36.84
53916;BME280;39827;49.652;18.770;2024-03-23T10:47:31;72156.59;;;-149.71;36.99
53916;BME280;39827;49.652;18.770;2024-03-23T10:49:57;72136.50;;;-149.71;37.23
53916;BME280;39827;49.652;18.770;2024-03-23T10:52:23;72170.66;;;-149.71;37.54
53916;BME280;39827;49.652;18.770;2024-03-23T10:54:51;72088.31;;;-149.71;36.84
53916;BME280;39827;49.652;18.770;2024-03-23T11:00:15;72096.34;;;-149.71;36.66
53916;BME280;39827;49.652;18.770;2024-03-23T11:02:41;72134.50;;;-149.71;36.94
53916;BME280;39827;49.652;18.770;2024-03-23T11:07:52;72110.41;;;-149.71;37.35
53916;BME280;39827;49.652;18.770;2024-03-23T11:10:29;72142.53;;;-149.71;37.44
53916;BME280;39827;49.652;18.770;2024-03-23T11:12:59;72122.44;;;-149.71;36.94
53916;BME280;39827;49.652;18.770;2024-03-23T11:15:43;72124.47;;;-149.71;37.16
53916;BME280;39827;49.652;18.770;2024-03-23T11:18:09;71983.91;;;-149.71;35.21
53916;BME280;39827;49.652;18.770;2024-03-23T11:20:35;71861.41;;;-149.71;33.55
53916;BME280;39827;49.652;18.770;2024-03-23T11:23:01;71805.19;;;-149.71;33.08
53916;BME280;39827;49.652;18.770;2024-03-23T11:25:27;71750.97;;;-149.71;32.58
53916;BME280;39827;49.652;18.770;2024-03-23T11:27:58;71779.09;;;-149.71;31.99
53916;BME280;39827;49.652;18.770;2024-03-23T11:30:27;71720.84;;;-149.71;31.84
53916;BME280;39827;49.652;18.770;2024-03-23T11:32:55;71662.63;;;-149.71;31.21
53916;BME280;39827;49.652;18.770;2024-03-23T11:35:34;71732.91;;;-149.71;31.65
53916;BME280;39827;49.652;18.770;2024-03-23T11:38:12;71690.75;;;-149.71;32.03
53916;BME280;39827;49.652;18.770;2024-03-23T11:40:42;71744.94;;;-149.71;32.59
53916;BME280;39827;49.652;18.770;2024-03-23T11:43:10;71765.03;;;-149.71;32.03
53916;BME280;39827;49.652;18.770;2024-03-23T11:45:57;71765.03;;;-149.71;32.53
53916;BME280;39827;49.652;18.770;2024-03-23T11:48:23;71787.13;;;-149.71;32.65
53916;BME280;39827;49.652;18.770;2024-03-23T11:50:55;71706.81;;;-149.71;32.62
53916;BME280;39827;49.652;18.770;2024-03-23T11:53:21;71813.22;;;-149.71;32.87
53916;BME280;39827;49.652;18.770;2024-03-23T11:55:53;71755.00;;;-149.71;32.68
53916;BME280;39827;49.652;18.770;2024-03-23T11:58:19;71728.88;;;-149.71;32.73
53916;BME280;39827;49.652;18.770;2024-03-23T12:00:57;71676.69;;;-149.71;32.57
53916;BME280;39827;49.652;18.770;2024-03-23T12:03:23;71728.88;;;-149.71;32.69
53916;BME280;39827;49.652;18.770;2024-03-23T12:05:53;71688.72;;;-149.71;31.97
53916;BME280;39827;49.652;18.770;2024-03-23T12:08:39;71672.66;;;-149.71;31.92
53916;BME280;39827;49.652;18.770;2024-03-23T12:13:31;71676.69;;;-149.71;31.28
53916;BME280;39827;49.652;18.770;2024-03-23T12:16:09;71674.69;;;-149.71;30.84
53916;BME280;39827;49.652;18.770;2024-03-23T12:18:35;71622.47;;;-149.71;31.00
53916;BME280;39827;49.652;18.770;2024-03-23T12:21:01;71622.47;;;-149.71;30.58
53916;BME280;39827;49.652;18.770;2024-03-23T12:23:26;71676.69;;;-149.71;30.89
53916;BME280;39827;49.652;18.770;2024-03-23T12:25:51;71690.75;;;-149.71;31.24
53916;BME280;39827;49.652;18.770;2024-03-23T12:28:17;71666.66;;;-149.71;30.73
53916;BME280;39827;49.652;18.770;2024-03-23T12:30:42;71676.69;;;-149.71;30.91
53916;BME280;39827;49.652;18.770;2024-03-23T12:33:08;71632.50;;;-149.71;31.08
53916;BME280;39827;49.652;18.770;2024-03-23T12:35:33;71636.53;;;-149.71;30.80
53916;BME280;39827;49.652;18.770;2024-03-23T12:37:59;71620.47;;;-149.71;31.07
53916;BME280;39827;49.652;18.770;2024-03-23T12:40:25;71586.34;;;-149.71;30.51
53916;BME280;39827;49.652;18.770;2024-03-23T12:42:51;71516.06;;;-149.71;30.64
53916;BME280;39827;49.652;18.770;2024-03-23T12:45:17;71508.03;;;-149.71;30.08
53916;BME280;39827;49.652;18.770;2024-03-23T12:47:42;71431.72;;;-149.71;29.71
53916;BME280;39827;49.652;18.770;2024-03-23T12:50:08;71532.13;;;-149.71;29.26
53916;BME280;39827;49.652;18.770;2024-03-23T12:52:35;71441.78;;;-149.71;30.02
53916;BME280;39827;49.652;18.770;2024-03-23T12:55:00;71682.72;;;-149.71;30.82
53916;BME280;39827;49.652;18.770;2024-03-23T12:57:26;71638.53;;;-149.71;30.76
53916;BME280;39827;49.652;18.770;2024-03-23T12:59:52;71570.28;;;-149.71;30.33
53916;BME280;39827;49.652;18.770;2024-03-23T13:02:21;71672.66;;;-149.71;30.87
53916;BME280;39827;49.652;18.770;2024-03-23T13:04:50;71793.13;;;-149.71;32.17
53916;BME280;39827;49.652;18.770;2024-03-23T13:07:17;71875.47;;;-149.71;32.90
53916;BME280;39827;49.652;18.770;2024-03-23T13:09:42;71969.84;;;-149.71;34.11
53916;BME280;39827;49.652;18.770;2024-03-23T13:12:08;71935.69;;;-149.71;34.06
53916;BME280;39827;49.652;18.770;2024-03-23T13:14:33;71929.69;;;-149.71;34.32
53916;BME280;39827;49.652;18.770;2024-03-23T13:16:59;71955.78;;;-149.71;34.26
53916;BME280;39827;49.652;18.770;2024-03-23T13:19:24;71971.84;;;-149.71;34.43
53916;BME280;39827;49.652;18.770;2024-03-23T13:21:53;71985.91;;;-149.71;34.42
53916;BME280;39827;49.652;18.770;2024-03-23T13:24:22;72008.00;;;-149.71;34.84
53916;BME280;39827;49.652;18.770;2024-03-23T13:26:49;72016.03;;;-149.71;34.88
53916;BME280;39827;49.652;18.770;2024-03-23T13:29:14;71991.94;;;-149.71;36.05
53916;BME280;39827;49.652;18.770;2024-03-23T13:31:40;71985.91;;;-149.71;35.42